createdAt,value
2022-12-08T00:03:59.405Z,4.60
2022-12-08T00:14:03.480Z,5.20
2022-12-08T00:24:07.665Z,5.10
2022-12-08T00:34:14.233Z,4.50
2022-12-08T00:44:19.403Z,4.70
2022-12-08T00:54:23.976Z,4.70
2022-12-08T01:04:27.944Z,4.10
2022-12-08T01:14:31.967Z,5.20
2022-12-08T01:24:35.642Z,5.50
2022-12-08T01:34:39.855Z,5.20
2022-12-08T01:44:43.518Z,4.50
2022-12-08T01:54:57.107Z,4.40
2022-12-08T02:05:02.379Z,5.00
2022-12-08T02:15:06.736Z,4.90
2022-12-08T02:25:10.361Z,4.30
2022-12-08T02:35:19.348Z,4.40
2022-12-08T02:45:33.331Z,4.30
2022-12-08T02:55:55.758Z,3.70
2022-12-08T03:06:11.679Z,3.90
2022-12-08T03:16:20.205Z,4.50
2022-12-08T03:26:57.504Z,5.80
2022-12-08T03:37:02.844Z,4.20
2022-12-08T03:47:06.661Z,4.30
2022-12-08T03:57:10.301Z,4.20
2022-12-08T04:07:14.088Z,4.20
2022-12-08T04:17:17.859Z,4.30
2022-12-08T04:27:21.852Z,4.70
2022-12-08T04:37:25.611Z,5.70
2022-12-08T04:47:29.669Z,5.30
2022-12-08T04:57:33.441Z,5.50
2022-12-08T05:07:37.230Z,6.10
2022-12-08T05:17:41.092Z,6.00
2022-12-08T05:27:44.941Z,6.40
2022-12-08T05:37:48.815Z,6.50
2022-12-08T05:47:54.213Z,7.30
2022-12-08T05:57:59.955Z,5.70
2022-12-08T06:08:07.426Z,5.80
2022-12-08T06:18:12.282Z,4.80
2022-12-08T06:28:16.472Z,4.40
2022-12-08T06:38:20.518Z,5.40
2022-12-08T06:48:24.597Z,5.50
2022-12-08T06:58:28.683Z,6.60
2022-12-08T07:08:34.033Z,7.20
2022-12-08T07:18:38.657Z,7.40
2022-12-08T07:28:43.342Z,5.90
2022-12-08T07:38:48.051Z,5.70
2022-12-08T07:48:56.005Z,7.50
2022-12-08T08:09:04.041Z,4.80
2022-12-08T08:19:07.913Z,5.60
2022-12-08T08:29:11.987Z,4.10
2022-12-08T08:39:16.272Z,5.20
2022-12-08T08:49:20.518Z,4.70
2022-12-08T08:59:25.229Z,5.00
2022-12-08T09:09:28.996Z,3.70
2022-12-08T09:19:33.505Z,4.00
2022-12-08T09:29:38.683Z,3.40
2022-12-08T09:39:42.447Z,3.10
2022-12-08T09:50:07.984Z,2.90
2022-12-08T10:00:14.360Z,3.50
2022-12-08T10:10:42.255Z,4.50
2022-12-08T10:20:49.704Z,4.20
2022-12-08T10:30:54.342Z,4.10
2022-12-08T10:41:09.948Z,3.60
2022-12-08T10:51:28.554Z,4.90
2022-12-08T11:01:39.573Z,5.00
2022-12-08T11:11:59.539Z,4.40
2022-12-08T11:22:21.532Z,4.10
2022-12-08T11:32:25.468Z,4.20
2022-12-08T11:42:36.009Z,4.00
2022-12-08T11:52:47.349Z,3.70
2022-12-08T12:03:00.703Z,3.50
2022-12-08T12:13:30.583Z,4.70
2022-12-08T12:23:42.850Z,3.90
2022-12-08T12:33:49.469Z,3.80
2022-12-08T12:44:16.043Z,4.30
2022-12-08T12:54:22.596Z,4.10
2022-12-08T13:04:33.781Z,4.20
2022-12-08T13:14:47.165Z,4.00
2022-12-08T13:24:51.372Z,5.00
2022-12-08T13:35:00.465Z,4.10
2022-12-08T14:06:15.693Z,4.50
2022-12-08T14:16:37.182Z,3.50
2022-12-08T14:26:41.574Z,4.60
2022-12-08T14:36:46.055Z,5.60
2022-12-08T14:47:07.520Z,6.20
2022-12-08T14:57:15.326Z,4.70
2022-12-08T15:07:28.642Z,6.90
2022-12-08T15:17:40.947Z,8.40
2022-12-08T15:27:50.578Z,14.40
2022-12-08T15:37:54.817Z,14.40
2022-12-08T15:47:58.792Z,23.30
2022-12-08T15:58:52.555Z,29.20
2022-12-08T16:08:47.446Z,34.50
2022-12-08T16:18:53.470Z,27.50
2022-12-08T16:28:57.849Z,36.20
2022-12-08T16:39:02.931Z,42.20
2022-12-08T16:49:09.587Z,59.50
2022-12-08T16:59:13.664Z,53.90
2022-12-08T17:09:17.830Z,40.30
2022-12-08T17:19:21.855Z,36.10
2022-12-08T17:29:25.895Z,41.00
2022-12-08T17:39:30.060Z,44.10
2022-12-08T17:49:35.307Z,48.90
2022-12-08T17:59:41.064Z,54.50
2022-12-08T18:09:46.425Z,49.40
2022-12-08T18:19:50.875Z,53.10
2022-12-08T18:29:55.761Z,30.60
2022-12-08T18:40:00.634Z,62.50
2022-12-08T18:50:08.310Z,40.90
2022-12-08T19:00:16.706Z,54.90
2022-12-08T19:10:21.470Z,40.00
2022-12-08T19:20:29.732Z,38.40
2022-12-08T19:30:37.855Z,39.80
2022-12-08T19:41:04.384Z,45.20
2022-12-08T19:51:10.822Z,52.10
2022-12-08T20:01:17.990Z,50.60
2022-12-08T20:11:24.527Z,52.10
2022-12-08T20:21:30.916Z,50.40
2022-12-08T20:31:40.123Z,47.80
2022-12-08T20:41:47.822Z,51.20
2022-12-08T20:52:00.185Z,49.10
2022-12-08T21:02:04.963Z,53.10
2022-12-08T21:12:09.944Z,46.70
2022-12-08T21:22:15.200Z,46.20
2022-12-08T21:32:19.298Z,49.60
2022-12-08T21:42:41.823Z,48.10
2022-12-08T21:52:48.309Z,47.10
2022-12-08T22:02:52.992Z,45.60
2022-12-08T22:12:57.504Z,46.50
2022-12-08T22:23:01.938Z,45.90
2022-12-08T22:33:05.946Z,46.50
2022-12-08T22:43:10.104Z,46.70
2022-12-08T22:53:14.200Z,46.80
2022-12-08T23:03:18.280Z,44.60
2022-12-08T23:13:22.414Z,44.20
2022-12-08T23:23:26.068Z,43.30
2022-12-08T23:33:30.508Z,40.00
2022-12-08T23:43:34.804Z,43.10
2022-12-08T23:53:39.159Z,42.50
